Airport Name : Arad

Other Name : Arad

ICAO : LRAR

IATA : ARW

FAA :

Latitude : 46.17655

Longitude : 21.262022

Country : Romania

Local Date and Time : 18 Jul 2024 19:52

 

TAF (Terminal Aerodrome Forecast)

TAF LRAR 181400Z 1815/1900 01008KT CAVOK TEMPO 1816/1821 VRB15G25KT 5000 TSRA SCT050CB

 

METAR (METeorological Aerodrome Report)

LRAR 181630Z 03008KT CAVOK 33/19 Q1016

LRAR 181600Z 04010KT CAVOK 33/18 Q1016

LRAR 181530Z 03009KT 360V070 CAVOK 33/18 Q1016

LRAR 181500Z 01007KT 340V040 CAVOK 34/19 Q1016

LRAR 181430Z 04009KT CAVOK 34/19 Q1016

LRAR 181400Z 05009KT 010V080 CAVOK 34/18 Q1016

LRAR 181330Z 04010KT 350V070 CAVOK 34/17 Q1016

LRAR 181300Z 04007KT 350V080 CAVOK 35/17 Q1017